Time;durP1;ratioP1;P1;durP2;ratioP2;P2;SDS_P1;SDS_P2;PMS_P1;PMS_P2;Temp;Humidity;BMP_temperature;BMP_pressure;BME280_temperature;BME280_humidity;BME280_pressure;Samples;Min_cycle;Max_cycle;Signal;HPM_P1;HPM_P2
2021/12/05 00:24:15;;;;;;;;;;;18.00;42.90;;;;;;5060641;28;44430;-82
2021/12/05 00:26:47;;;;;;;;;;;17.90;42.80;;;;;;5050979;28;43625;-81
2021/12/05 01:01:49;;;;;;;;;;;17.90;42.90;;;;;;5065504;28;42959;-82
2021/12/05 01:17:20;;;;;;;;;;;17.90;43.00;;;;;;5064502;28;42845;-81
2021/12/05 01:19:47;;;;;;;;;;;17.90;43.10;;;;;;5064674;28;43013;-82
2021/12/05 01:22:15;;;;;;;;;;;17.90;43.00;;;;;;5064600;28;43024;-83
2021/12/05 01:27:17;;;;;;;;;;;17.90;43.00;;;;;;5063807;28;42953;-81
2021/12/05 01:35:43;;;;;;;;;;;17.90;42.90;;;;;;5064205;28;43071;-81
2021/12/05 01:38:17;;;;;;;;;;;17.90;43.00;;;;;;5063795;28;43047;-81
2021/12/05 01:49:01;;;;;;;;;;;17.90;42.90;;;;;;5059738;28;43262;-82
2021/12/05 01:59:50;;;;;;;;;;;17.90;42.90;;;;;;5063617;28;43027;-82
2021/12/05 02:09:54;;;;;;;;;;;17.90;42.90;;;;;;5063923;28;43050;-82
2021/12/05 02:31:35;;;;;;;;;;;17.90;42.90;;;;;;5064397;28;43156;-81
2021/12/05 02:41:50;;;;;;;;;;;17.90;42.90;;;;;;5066345;28;42890;-81
2021/12/05 02:46:47;;;;;;;;;;;17.90;42.90;;;;;;5067098;28;42930;-82
2021/12/05 02:49:15;;;;;;;;;;;17.90;42.90;;;;;;5067271;28;43763;-81
2021/12/05 02:51:41;;;;;;;;;;;17.90;42.90;;;;;;5067583;28;42962;-81
2021/12/05 02:54:13;;;;;;;;;;;17.90;42.80;;;;;;5065567;28;43354;-82
2021/12/05 02:56:46;;;;;;;;;;;18.00;42.90;;;;;;5066736;28;42771;-81
2021/12/05 03:02:05;;;;;;;;;;;17.90;42.90;;;;;;5066908;28;42873;-81
2021/12/05 03:04:32;;;;;;;;;;;18.00;43.00;;;;;;5066846;28;43473;-82
2021/12/05 03:07:00;;;;;;;;;;;17.90;42.90;;;;;;5067165;28;42887;-81
2021/12/05 03:09:25;;;;;;;;;;;17.90;42.90;;;;;;5066798;28;43420;-81
2021/12/05 03:11:51;;;;;;;;;;;17.90;42.90;;;;;;5066973;28;42948;-81
2021/12/05 03:14:17;;;;;;;;;;;18.00;42.90;;;;;;5066780;28;42963;-82
2021/12/05 03:16:43;;;;;;;;;;;17.90;42.90;;;;;;5067376;28;43073;-81
2021/12/05 03:19:09;;;;;;;;;;;17.90;42.90;;;;;;5066859;28;42889;-82
2021/12/05 03:21:36;;;;;;;;;;;17.90;43.00;;;;;;5066823;28;42796;-82
2021/12/05 03:24:01;;;;;;;;;;;18.00;43.00;;;;;;5066773;28;43053;-82
2021/12/05 03:26:28;;;;;;;;;;;18.00;43.00;;;;;;5066319;28;42961;-81
2021/12/05 03:28:55;;;;;;;;;;;18.00;43.00;;;;;;5066862;28;42925;-81
2021/12/05 03:31:22;;;;;;;;;;;18.00;42.90;;;;;;5066488;28;42949;-82
2021/12/05 03:33:47;;;;;;;;;;;18.00;42.90;;;;;;5065650;28;42946;-81
2021/12/05 03:36:14;;;;;;;;;;;17.90;42.90;;;;;;5064665;28;43096;-82
2021/12/05 03:38:40;;;;;;;;;;;17.90;42.90;;;;;;5066378;28;42924;-82
2021/12/05 03:41:06;;;;;;;;;;;17.90;42.90;;;;;;5066249;28;42947;-82
2021/12/05 03:43:31;;;;;;;;;;;17.90;42.80;;;;;;5066400;28;42963;-82
2021/12/05 03:45:58;;;;;;;;;;;17.90;42.90;;;;;;5066609;28;42767;-81
2021/12/05 03:48:25;;;;;;;;;;;17.90;42.90;;;;;;5066723;28;43074;-82
2021/12/05 03:50:51;;;;;;;;;;;18.00;43.00;;;;;;5066299;28;43488;-83
2021/12/05 03:53:17;;;;;;;;;;;17.90;42.90;;;;;;5066283;28;42867;-82
2021/12/05 03:55:46;;;;;;;;;;;17.90;42.90;;;;;;5066260;28;42949;-82
2021/12/05 03:58:12;;;;;;;;;;;17.90;42.80;;;;;;5065707;28;44181;-82
2021/12/05 04:00:39;;;;;;;;;;;17.90;42.80;;;;;;5066535;28;42771;-83
2021/12/05 04:03:05;;;;;;;;;;;17.90;42.80;;;;;;5065941;28;42796;-83
2021/12/05 04:05:32;;;;;;;;;;;17.90;42.90;;;;;;5066344;28;42996;-83
2021/12/05 04:07:57;;;;;;;;;;;17.90;42.90;;;;;;5066430;28;43602;-82
2021/12/05 04:10:26;;;;;;;;;;;17.90;42.90;;;;;;5066242;28;42960;-82
2021/12/05 04:12:52;;;;;;;;;;;18.00;42.90;;;;;;5065777;28;43871;-82
2021/12/05 04:15:17;;;;;;;;;;;18.00;43.00;;;;;;5066070;28;42865;-82
2021/12/05 04:17:43;;;;;;;;;;;18.00;42.90;;;;;;5065709;28;43056;-82
2021/12/05 04:20:11;;;;;;;;;;;18.00;42.90;;;;;;5065746;28;42958;-82
2021/12/05 04:22:37;;;;;;;;;;;18.00;42.90;;;;;;5065694;28;42967;-82
2021/12/05 04:25:08;;;;;;;;;;;17.90;42.90;;;;;;5065755;28;43052;-81
2021/12/05 04:27:33;;;;;;;;;;;17.90;42.90;;;;;;5065650;28;44034;-81
2021/12/05 04:29:59;;;;;;;;;;;18.00;43.00;;;;;;5065396;28;43119;-82
2021/12/05 04:32:24;;;;;;;;;;;17.90;42.80;;;;;;5063628;28;44425;-82
2021/12/05 04:34:50;;;;;;;;;;;17.90;42.90;;;;;;5065720;28;43025;-81
2021/12/05 04:37:15;;;;;;;;;;;18.00;43.00;;;;;;5064738;28;43513;-80
2021/12/05 04:39:41;;;;;;;;;;;18.00;42.90;;;;;;5064967;28;42979;-81
2021/12/05 04:42:06;;;;;;;;;;;17.90;43.00;;;;;;5065593;28;43055;-81
2021/12/05 04:44:32;;;;;;;;;;;17.90;42.90;;;;;;5063781;28;42981;-81
2021/12/05 04:47:00;;;;;;;;;;;17.90;42.90;;;;;;5065624;28;42969;-81
2021/12/05 04:49:26;;;;;;;;;;;17.90;42.80;;;;;;5065764;28;42886;-81
2021/12/05 04:51:51;;;;;;;;;;;18.00;43.00;;;;;;5065583;28;43531;-81
2021/12/05 04:54:18;;;;;;;;;;;17.90;42.90;;;;;;5065178;28;42813;-81
2021/12/05 04:56:45;;;;;;;;;;;17.90;42.90;;;;;;5065150;28;43959;-81
2021/12/05 04:59:14;;;;;;;;;;;17.90;42.90;;;;;;5065400;28;42746;-82
2021/12/05 05:01:45;;;;;;;;;;;17.90;42.90;;;;;;5064637;28;42815;-82
2021/12/05 05:07:10;;;;;;;;;;;17.90;43.00;;;;;;5057633;28;43899;-82
2021/12/05 05:09:35;;;;;;;;;;;17.90;43.00;;;;;;5064554;28;42928;-82
2021/12/05 05:12:01;;;;;;;;;;;17.90;42.90;;;;;;5064465;28;43142;-82
2021/12/05 05:14:27;;;;;;;;;;;17.90;43.10;;;;;;5064598;28;43010;-82
2021/12/05 05:16:53;;;;;;;;;;;17.90;43.00;;;;;;5064718;28;43237;-82
2021/12/05 05:19:23;;;;;;;;;;;17.90;42.90;;;;;;5064926;28;42915;-82
2021/12/05 05:21:59;;;;;;;;;;;17.90;42.90;;;;;;5064336;28;42797;-81
2021/12/05 05:46:27;;;;;;;;;;;17.90;42.90;;;;;;5044794;28;42814;-82
2021/12/05 05:49:12;;;;;;;;;;;17.90;43.00;;;;;;5043596;28;43416;-82
2021/12/05 05:51:38;;;;;;;;;;;17.90;43.00;;;;;;5043679;28;42856;-82
2021/12/05 05:54:03;;;;;;;;;;;17.90;43.00;;;;;;5042097;28;44647;-83
2021/12/05 05:56:31;;;;;;;;;;;17.90;42.90;;;;;;5044230;28;42982;-82
2021/12/05 05:59:06;;;;;;;;;;;17.90;42.90;;;;;;5043526;28;43557;-82
2021/12/05 06:04:00;;;;;;;;;;;17.90;42.90;;;;;;5043702;28;42938;-82
2021/12/05 06:06:27;;;;;;;;;;;18.00;43.00;;;;;;5044379;28;42950;-82
2021/12/05 06:08:52;;;;;;;;;;;17.90;42.90;;;;;;5043923;28;43083;-82
2021/12/05 06:11:18;;;;;;;;;;;17.90;42.90;;;;;;5043704;28;42930;-82
2021/12/05 06:13:44;;;;;;;;;;;17.90;42.90;;;;;;5046152;28;42957;-82
2021/12/05 06:16:10;;;;;;;;;;;17.90;43.00;;;;;;5047371;28;42942;-81
2021/12/05 06:18:36;;;;;;;;;;;17.90;42.90;;;;;;5047159;28;42954;-81
2021/12/05 06:21:02;;;;;;;;;;;17.90;43.00;;;;;;5047947;28;42939;-81
2021/12/05 06:23:28;;;;;;;;;;;17.90;42.90;;;;;;5048559;28;43297;-81
2021/12/05 06:25:56;;;;;;;;;;;17.90;42.90;;;;;;5067843;28;43019;-81
2021/12/05 06:28:28;;;;;;;;;;;17.90;43.00;;;;;;5067443;28;43434;-82
2021/12/05 06:47:03;;;;;;;;;;;17.90;43.00;;;;;;5067140;28;43055;-82
2021/12/05 06:49:29;;;;;;;;;;;17.90;43.00;;;;;;5067009;28;43387;-80
2021/12/05 06:51:55;;;;;;;;;;;17.90;43.00;;;;;;5067275;28;42972;-81
2021/12/05 06:54:22;;;;;;;;;;;17.90;43.10;;;;;;5067519;28;42832;-81
2021/12/05 06:56:47;;;;;;;;;;;17.90;43.00;;;;;;5067120;28;42927;-81
2021/12/05 06:59:13;;;;;;;;;;;17.90;43.00;;;;;;5067095;28;42890;-81
2021/12/05 07:01:38;;;;;;;;;;;17.90;43.00;;;;;;5067052;28;42782;-81
2021/12/05 07:04:13;;;;;;;;;;;17.90;43.00;;;;;;5066974;28;43732;-80
2021/12/05 07:06:41;;;;;;;;;;;17.90;43.00;;;;;;5066891;28;42948;-80
2021/12/05 07:09:09;;;;;;;;;;;17.90;43.00;;;;;;5067267;28;43117;-81
2021/12/05 07:19:35;;;;;;;;;;;17.90;42.90;;;;;;5064759;28;43495;-81
2021/12/05 07:22:13;;;;;;;;;;;17.90;42.90;;;;;;5065147;28;42852;-81
2021/12/05 07:24:45;;;;;;;;;;;17.90;42.90;;;;;;5062954;28;44391;-80
2021/12/05 07:40:52;;;;;;;;;;;17.90;43.30;;;;;;5063502;28;43001;-81
2021/12/05 07:43:18;;;;;;;;;;;17.90;43.00;;;;;;5057957;28;42904;-82
2021/12/05 07:46:00;;;;;;;;;;;17.90;43.00;;;;;;5064832;28;43504;-82
2021/12/05 07:48:31;;;;;;;;;;;17.90;42.50;;;;;;5064878;28;42940;-83
2021/12/05 07:51:09;;;;;;;;;;;17.90;42.40;;;;;;5062198;28;43129;-83
2021/12/05 07:53:47;;;;;;;;;;;17.90;41.90;;;;;;5065057;28;43092;-83
2021/12/05 07:56:19;;;;;;;;;;;17.90;41.90;;;;;;5064042;28;42862;-81
2021/12/05 07:59:06;;;;;;;;;;;17.90;41.70;;;;;;5064169;28;42991;-83
2021/12/05 08:17:52;;;;;;;;;;;17.80;41.00;;;;;;5063388;28;43006;-83
2021/12/05 08:20:19;;;;;;;;;;;17.80;41.20;;;;;;5061867;28;43016;-83
2021/12/05 08:22:45;;;;;;;;;;;17.70;41.20;;;;;;5063123;28;43905;-83
2021/12/05 08:25:12;;;;;;;;;;;17.70;41.20;;;;;;5064756;28;42846;-82
2021/12/05 08:27:42;;;;;;;;;;;17.70;41.30;;;;;;5061507;28;43082;-83
2021/12/05 08:30:12;;;;;;;;;;;17.70;41.20;;;;;;5063187;28;42859;-82
2021/12/05 08:41:07;;;;;;;;;;;17.70;41.30;;;;;;5062446;28;43067;-81
2021/12/05 09:24:40;;;;;;;;;;;17.70;41.70;;;;;;5059662;28;44403;-80
2021/12/05 10:15:01;;;;;;;;;;;17.60;41.40;;;;;;5058565;28;43061;-81
2021/12/05 10:17:40;;;;;;;;;;;17.60;41.80;;;;;;5064780;28;43083;-85
2021/12/05 10:20:31;;;;;;;;;;;17.60;41.60;;;;;;5064646;28;44162;-81
2021/12/05 10:33:50;;;;;;;;;;;17.20;39.60;;;;;;5062322;28;42996;-74
2021/12/05 10:36:22;;;;;;;;;;;16.80;41.20;;;;;;5065014;28;43086;-75
2021/12/05 10:38:51;;;;;;;;;;;16.80;40.90;;;;;;5065866;28;43146;-74
2021/12/05 10:43:53;;;;;;;;;;;17.00;40.20;;;;;;5065589;28;42853;-78
2021/12/05 10:46:20;;;;;;;;;;;16.90;39.40;;;;;;5067212;28;44217;-75
2021/12/05 10:48:50;;;;;;;;;;;16.90;39.20;;;;;;5066586;28;43211;-74
2021/12/05 10:51:20;;;;;;;;;;;16.90;39.10;;;;;;5066650;28;42970;-76
2021/12/05 10:53:49;;;;;;;;;;;16.90;39.30;;;;;;5067100;28;43019;-75
2021/12/05 10:56:19;;;;;;;;;;;16.90;39.10;;;;;;5067052;28;44584;-75
2021/12/05 10:58:47;;;;;;;;;;;17.00;39.40;;;;;;5066535;28;42937;-79
2021/12/05 11:01:13;;;;;;;;;;;16.70;40.10;;;;;;5066861;28;42964;-75
2021/12/05 11:03:39;;;;;;;;;;;18.40;49.60;;;;;;5067606;28;42736;-77
2021/12/05 11:06:18;;;;;;;;;;;16.60;48.20;;;;;;5066583;28;43190;-76
2021/12/05 11:08:44;;;;;;;;;;;16.50;46.70;;;;;;5066855;28;43048;-77
2021/12/05 11:11:09;;;;;;;;;;;16.60;45.50;;;;;;5067377;28;43323;-76
2021/12/05 11:13:36;;;;;;;;;;;16.50;44.90;;;;;;5066608;28;43539;-77
2021/12/05 11:16:02;;;;;;;;;;;16.70;45.90;;;;;;5067162;28;43404;-77
2021/12/05 11:18:43;;;;;;;;;;;16.50;44.80;;;;;;5065884;28;43097;-77
2021/12/05 11:21:31;;;;;;;;;;;16.50;44.10;;;;;;5065054;28;44601;-76
2021/12/05 11:24:23;;;;;;;;;;;16.50;51.70;;;;;;5067229;28;42855;-77
2021/12/05 11:27:06;;;;;;;;;;;16.10;49.90;;;;;;5064440;28;43189;-76
2021/12/05 11:29:39;;;;;;;;;;;16.00;51.40;;;;;;5066825;28;42977;-76
2021/12/05 11:32:05;;;;;;;;;;;16.00;51.00;;;;;;5065310;28;44511;-86
2021/12/05 11:34:31;;;;;;;;;;;16.00;51.50;;;;;;5067205;28;42837;-87
2021/12/05 11:36:57;;;;;;;;;;;16.20;50.90;;;;;;5066344;28;42870;-88
2021/12/05 11:39:23;;;;;;;;;;;16.00;50.50;;;;;;5066234;28;43003;-78
2021/12/05 11:41:50;;;;;;;;;;;16.00;50.20;;;;;;5066360;28;42937;-87
2021/12/05 11:44:17;;;;;;;;;;;16.00;50.30;;;;;;5066553;28;42880;-76
2021/12/05 11:46:44;;;;;;;;;;;16.00;49.20;;;;;;5066626;28;42942;-78
2021/12/05 11:49:13;;;;;;;;;;;15.90;48.60;;;;;;5066384;28;42775;-78
2021/12/05 11:51:44;;;;;;;;;;;15.80;48.80;;;;;;5066111;28;42951;-76
2021/12/05 11:54:14;;;;;;;;;;;15.90;48.50;;;;;;5066622;28;43020;-76
2021/12/05 11:56:43;;;;;;;;;;;15.70;47.90;;;;;;5066122;28;44302;-77
2021/12/05 11:59:08;;;;;;;;;;;15.80;48.10;;;;;;5066058;28;43003;-77
2021/12/05 12:01:35;;;;;;;;;;;15.80;48.60;;;;;;5066167;28;43361;-81
2021/12/05 12:04:01;;;;;;;;;;;15.70;49.70;;;;;;5066540;28;42708;-77
2021/12/05 12:06:27;;;;;;;;;;;15.70;49.60;;;;;;5066365;28;42957;-77
2021/12/05 12:08:54;;;;;;;;;;;15.70;50.20;;;;;;5066565;28;42861;-76
2021/12/05 12:11:20;;;;;;;;;;;15.80;51.30;;;;;;5066256;28;43596;-76
2021/12/05 12:13:47;;;;;;;;;;;15.50;51.90;;;;;;5065842;28;42908;-77
2021/12/05 12:16:13;;;;;;;;;;;15.60;52.70;;;;;;5064683;28;42870;-77
2021/12/05 12:18:43;;;;;;;;;;;15.60;53.60;;;;;;5064995;28;60637;-76
2021/12/05 12:21:16;;;;;;;;;;;15.60;55.30;;;;;;5065473;28;43407;-79
2021/12/05 12:23:42;;;;;;;;;;;15.60;57.40;;;;;;5064684;28;42992;-78
2021/12/05 12:26:08;;;;;;;;;;;15.60;55.70;;;;;;5056370;28;43610;-75
2021/12/05 12:28:33;;;;;;;;;;;16.00;50.10;;;;;;5063669;28;42951;-79
2021/12/05 12:31:08;;;;;;;;;;;15.60;50.60;;;;;;5062457;28;45366;-76
2021/12/05 12:33:35;;;;;;;;;;;15.80;50.50;;;;;;5064821;28;43574;-79
2021/12/05 12:36:02;;;;;;;;;;;15.70;50.90;;;;;;5064553;28;43929;-79
2021/12/05 12:38:30;;;;;;;;;;;15.90;50.50;;;;;;5062861;28;43615;-81
2021/12/05 12:41:01;;;;;;;;;;;15.50;50.60;;;;;;5064863;28;42949;-80
2021/12/05 12:43:26;;;;;;;;;;;15.90;51.20;;;;;;5058712;28;43350;-80
2021/12/05 12:45:52;;;;;;;;;;;16.20;51.80;;;;;;5063507;28;43065;-81
2021/12/05 12:48:18;;;;;;;;;;;16.30;52.00;;;;;;5062878;28;43173;-80
2021/12/05 12:50:51;;;;;;;;;;;16.30;51.60;;;;;;5063375;28;43836;-80
2021/12/05 12:53:18;;;;;;;;;;;15.80;51.30;;;;;;5064780;28;42940;-83
2021/12/05 12:55:49;;;;;;;;;;;15.90;51.30;;;;;;5063962;28;43464;-80
2021/12/05 12:58:33;;;;;;;;;;;15.80;51.10;;;;;;5064075;28;42984;-79
2021/12/05 13:01:00;;;;;;;;;;;15.90;51.20;;;;;;5064263;28;42972;-80
2021/12/05 13:04:02;;;;;;;;;;;16.10;52.00;;;;;;5064526;28;43151;-80
2021/12/05 13:11:48;;;;;;;;;;;15.90;52.30;;;;;;5060942;28;43192;-79
2021/12/05 13:14:14;;;;;;;;;;;16.10;52.40;;;;;;5062126;28;42974;-80
2021/12/05 13:16:41;;;;;;;;;;;16.00;51.50;;;;;;5063549;28;43483;-80
2021/12/05 13:19:13;;;;;;;;;;;16.10;53.10;;;;;;5064126;28;43016;-80
2021/12/05 13:21:42;;;;;;;;;;;16.10;52.30;;;;;;5063599;28;42984;-80
2021/12/05 13:24:25;;;;;;;;;;;16.20;52.20;;;;;;5062425;28;42886;-79
2021/12/05 13:27:01;;;;;;;;;;;16.00;53.30;;;;;;5063949;28;42925;-80
2021/12/05 13:29:27;;;;;;;;;;;16.10;52.10;;;;;;5063924;28;43012;-79
2021/12/05 13:32:06;;;;;;;;;;;16.30;52.70;;;;;;5064460;28;43962;-80
2021/12/05 13:34:43;;;;;;;;;;;16.10;52.60;;;;;;5063751;28;43101;-79
2021/12/05 13:37:09;;;;;;;;;;;16.20;53.20;;;;;;5062787;28;43809;-79
2021/12/05 13:39:47;;;;;;;;;;;16.30;53.40;;;;;;5063086;28;43254;-80
2021/12/05 13:42:16;;;;;;;;;;;16.30;53.50;;;;;;5063570;28;42802;-79
2021/12/05 13:44:57;;;;;;;;;;;16.10;54.60;;;;;;5060386;28;43002;-80
2021/12/05 13:47:29;;;;;;;;;;;16.30;54.90;;;;;;5063877;28;43804;-80
2021/12/05 13:49:56;;;;;;;;;;;16.20;53.50;;;;;;5063157;28;42986;-80
2021/12/05 13:52:32;;;;;;;;;;;16.20;54.90;;;;;;5064196;28;43601;-79
2021/12/05 13:55:17;;;;;;;;;;;16.40;54.40;;;;;;5063579;28;42850;-79
2021/12/05 13:58:01;;;;;;;;;;;16.30;53.80;;;;;;5062334;28;42929;-80
2021/12/05 14:00:39;;;;;;;;;;;16.20;54.00;;;;;;5062885;28;43141;-79
2021/12/05 14:03:05;;;;;;;;;;;16.30;54.30;;;;;;5059090;28;43606;-79
2021/12/05 14:05:31;;;;;;;;;;;16.40;55.40;;;;;;5059692;28;43243;-79
2021/12/05 14:07:56;;;;;;;;;;;16.40;53.60;;;;;;5063404;28;43036;-80
2021/12/05 14:10:22;;;;;;;;;;;16.30;53.30;;;;;;5059984;28;42888;-79
2021/12/05 14:12:47;;;;;;;;;;;16.30;54.50;;;;;;5063021;28;43788;-79
2021/12/05 14:15:15;;;;;;;;;;;16.40;55.30;;;;;;5062926;28;43018;-79
2021/12/05 14:17:43;;;;;;;;;;;16.60;53.70;;;;;;5063635;28;43900;-79
2021/12/05 14:20:11;;;;;;;;;;;16.40;53.50;;;;;;5062225;28;43088;-79
2021/12/05 14:22:37;;;;;;;;;;;16.30;55.00;;;;;;5063328;28;43363;-79
2021/12/05 14:25:13;;;;;;;;;;;16.40;55.70;;;;;;5062462;28;42946;-79
2021/12/05 14:27:41;;;;;;;;;;;16.30;55.40;;;;;;5062899;28;43441;-80
2021/12/05 14:30:08;;;;;;;;;;;16.60;55.40;;;;;;5063056;28;43001;-79
2021/12/05 14:32:36;;;;;;;;;;;16.40;55.40;;;;;;5063031;28;45159;-79
2021/12/05 14:35:01;;;;;;;;;;;16.50;53.90;;;;;;5066422;28;42952;-80
2021/12/05 14:37:28;;;;;;;;;;;16.40;54.40;;;;;;5066757;28;43448;-79
2021/12/05 14:39:57;;;;;;;;;;;16.40;55.60;;;;;;5063973;28;42929;-79
2021/12/05 14:42:24;;;;;;;;;;;16.50;55.40;;;;;;5066375;28;42917;-79
2021/12/05 14:44:51;;;;;;;;;;;16.50;55.20;;;;;;5066956;28;42920;-80
2021/12/05 14:47:18;;;;;;;;;;;16.50;55.40;;;;;;5066608;28;42945;-82
2021/12/05 14:49:46;;;;;;;;;;;16.50;55.50;;;;;;5066871;28;43019;-80
2021/12/05 14:52:13;;;;;;;;;;;16.50;55.20;;;;;;5067397;28;42929;-79
2021/12/05 14:54:40;;;;;;;;;;;16.50;55.70;;;;;;5066971;28;42834;-78
2021/12/05 14:57:16;;;;;;;;;;;16.50;53.80;;;;;;5065137;28;43097;-81
2021/12/05 14:59:42;;;;;;;;;;;16.50;55.80;;;;;;5066574;28;42774;-82
2021/12/05 15:02:09;;;;;;;;;;;16.60;56.40;;;;;;5066609;28;44099;-82
2021/12/05 15:04:36;;;;;;;;;;;16.50;56.20;;;;;;5067438;28;43027;-81
2021/12/05 15:07:02;;;;;;;;;;;16.50;56.40;;;;;;5066378;28;43424;-81
2021/12/05 15:09:37;;;;;;;;;;;16.50;55.70;;;;;;5065841;28;43024;-81
2021/12/05 15:12:06;;;;;;;;;;;16.60;56.00;;;;;;5046191;28;43521;-80
2021/12/05 15:14:32;;;;;;;;;;;16.40;54.80;;;;;;5056401;28;43045;-81
2021/12/05 15:17:00;;;;;;;;;;;16.60;54.50;;;;;;5066094;28;43655;-82
2021/12/05 15:19:25;;;;;;;;;;;16.60;54.90;;;;;;5066343;28;43011;-82
2021/12/05 15:21:51;;;;;;;;;;;16.80;55.30;;;;;;5066224;28;43220;-81
2021/12/05 15:24:19;;;;;;;;;;;16.60;54.60;;;;;;5066656;28;42983;-81
2021/12/05 15:26:45;;;;;;;;;;;16.60;54.50;;;;;;5066284;28;42882;-81
2021/12/05 15:29:10;;;;;;;;;;;16.50;54.40;;;;;;5066158;28;42951;-81
2021/12/05 15:31:37;;;;;;;;;;;16.70;54.20;;;;;;5066561;28;43478;-81
2021/12/05 15:34:16;;;;;;;;;;;16.60;55.60;;;;;;5066627;28;43111;-81
2021/12/05 15:36:41;;;;;;;;;;;16.60;55.20;;;;;;5065848;28;43171;-81
2021/12/05 15:39:11;;;;;;;;;;;16.70;54.90;;;;;;5064458;28;43019;-80
2021/12/05 15:41:36;;;;;;;;;;;16.60;55.30;;;;;;5065233;28;43248;-82
2021/12/05 15:44:02;;;;;;;;;;;16.70;55.00;;;;;;5065684;28;42822;-80
2021/12/05 15:46:27;;;;;;;;;;;16.70;55.00;;;;;;5065164;28;43618;-81
2021/12/05 15:48:55;;;;;;;;;;;16.70;54.70;;;;;;5066555;28;43049;-80
2021/12/05 15:51:21;;;;;;;;;;;16.60;54.50;;;;;;5065978;28;43990;-82
2021/12/05 15:53:47;;;;;;;;;;;16.80;55.80;;;;;;5065747;28;42929;-82
2021/12/05 15:56:14;;;;;;;;;;;16.70;54.80;;;;;;5064203;28;44286;-80
2021/12/05 15:58:40;;;;;;;;;;;16.80;55.40;;;;;;5065151;28;42943;-80
2021/12/05 16:01:06;;;;;;;;;;;16.80;54.60;;;;;;5064812;28;42980;-80
2021/12/05 16:04:00;;;;;;;;;;;16.70;55.70;;;;;;5065683;28;42925;-78
2021/12/05 16:06:31;;;;;;;;;;;16.80;54.40;;;;;;5055979;28;43043;-81
2021/12/05 16:08:57;;;;;;;;;;;17.10;54.70;;;;;;5064697;28;43047;-82
2021/12/05 16:11:23;;;;;;;;;;;17.90;55.00;;;;;;5062627;28;44000;-80
2021/12/05 16:13:50;;;;;;;;;;;16.90;54.40;;;;;;5064329;28;42979;-87
2021/12/05 16:16:17;;;;;;;;;;;18.00;54.10;;;;;;5062697;28;44054;-82
2021/12/05 16:18:44;;;;;;;;;;;16.80;54.80;;;;;;5064067;28;42993;-84
2021/12/05 16:21:20;;;;;;;;;;;16.80;55.00;;;;;;5064160;28;42996;-86
2021/12/05 16:23:47;;;;;;;;;;;16.80;54.30;;;;;;5063838;28;42922;-84
2021/12/05 16:26:19;;;;;;;;;;;16.80;54.00;;;;;;5065515;28;43449;-86
2021/12/05 16:28:46;;;;;;;;;;;16.70;54.00;;;;;;5065336;28;42964;-87
2021/12/05 16:31:41;;;;;;;;;;;16.90;55.00;;;;;;5063981;28;42865;-87
2021/12/05 16:34:08;;;;;;;;;;;16.80;54.30;;;;;;5056291;28;42921;-88
2021/12/05 16:36:36;;;;;;;;;;;16.80;54.90;;;;;;5063531;28;44828;-87
2021/12/05 16:39:07;;;;;;;;;;;16.70;53.70;;;;;;5065328;28;42996;-88
2021/12/05 16:41:33;;;;;;;;;;;16.80;54.10;;;;;;5063366;28;44600;-87
2021/12/05 16:44:08;;;;;;;;;;;16.80;53.60;;;;;;5064224;28;42730;-86
2021/12/05 16:46:36;;;;;;;;;;;16.40;53.80;;;;;;5065309;28;43399;-86
2021/12/05 16:49:04;;;;;;;;;;;16.80;55.20;;;;;;5065124;28;42892;-86
2021/12/05 16:51:29;;;;;;;;;;;16.90;53.50;;;;;;5064855;28;42831;-84
2021/12/05 16:54:01;;;;;;;;;;;16.80;53.20;;;;;;5065027;28;42971;-89
2021/12/05 16:56:55;;;;;;;;;;;17.10;53.90;;;;;;5064563;28;43662;-87
2021/12/05 16:59:23;;;;;;;;;;;16.90;54.20;;;;;;5048813;28;43056;-87
2021/12/05 17:02:06;;;;;;;;;;;17.60;54.40;;;;;;5064917;28;43545;-87
2021/12/05 17:04:44;;;;;;;;;;;17.00;54.60;;;;;;5065072;28;42731;-87
2021/12/05 17:07:13;;;;;;;;;;;16.90;53.80;;;;;;5065254;28;42965;-86
2021/12/05 17:09:39;;;;;;;;;;;16.20;52.90;;;;;;5063488;28;42798;-87
2021/12/05 17:12:05;;;;;;;;;;;17.00;53.90;;;;;;5065056;28;43558;-87
2021/12/05 17:14:30;;;;;;;;;;;17.00;53.50;;;;;;5064663;28;43008;-87
2021/12/05 17:16:56;;;;;;;;;;;16.80;53.60;;;;;;5064981;28;43509;-87
2021/12/05 17:19:26;;;;;;;;;;;17.00;54.20;;;;;;5064924;28;42915;-87
2021/12/05 17:21:52;;;;;;;;;;;17.10;54.50;;;;;;5064811;28;42981;-86
2021/12/05 17:24:26;;;;;;;;;;;17.00;53.90;;;;;;5064949;28;43061;-88
2021/12/05 17:26:58;;;;;;;;;;;17.10;54.20;;;;;;5065199;28;43440;-87
2021/12/05 17:29:27;;;;;;;;;;;17.00;54.30;;;;;;5064790;28;42973;-86
2021/12/05 17:31:57;;;;;;;;;;;17.00;53.60;;;;;;5064567;28;42791;-88
2021/12/05 17:34:24;;;;;;;;;;;17.00;53.40;;;;;;5063445;28;43034;-83
2021/12/05 17:36:56;;;;;;;;;;;16.90;55.00;;;;;;5061120;28;43481;-84
2021/12/05 17:39:23;;;;;;;;;;;17.00;54.10;;;;;;5056123;28;42990;-83
2021/12/05 17:41:51;;;;;;;;;;;17.20;54.50;;;;;;5061989;28;43272;-80
2021/12/05 17:44:18;;;;;;;;;;;17.10;54.70;;;;;;5060729;28;43063;-82
2021/12/05 17:46:45;;;;;;;;;;;17.00;55.30;;;;;;5050876;28;43022;-81
2021/12/05 17:49:12;;;;;;;;;;;17.10;55.60;;;;;;5058485;28;43153;-82
2021/12/05 17:51:39;;;;;;;;;;;17.10;55.50;;;;;;5060058;28;43945;-81
2021/12/05 17:54:06;;;;;;;;;;;16.90;53.80;;;;;;5057329;28;43066;-81
2021/12/05 17:56:41;;;;;;;;;;;17.20;54.10;;;;;;5060506;28;43988;-81
2021/12/05 17:59:24;;;;;;;;;;;17.30;54.20;;;;;;5056083;28;43020;-81
2021/12/05 18:04:34;;;;;;;;;;;17.10;53.30;;;;;;5060012;28;43694;-79
2021/12/05 18:07:00;;;;;;;;;;;17.10;54.40;;;;;;5058449;28;43648;-80
2021/12/05 18:09:25;;;;;;;;;;;17.30;54.30;;;;;;5058624;28;43073;-81
2021/12/05 18:11:51;;;;;;;;;;;17.10;54.40;;;;;;5060992;28;43038;-81
2021/12/05 18:14:17;;;;;;;;;;;17.20;54.60;;;;;;5060492;28;42996;-81
2021/12/05 18:16:43;;;;;;;;;;;17.20;55.20;;;;;;5062577;28;43013;-82
2021/12/05 18:19:13;;;;;;;;;;;17.00;54.90;;;;;;5061028;28;43253;-82
2021/12/05 18:21:40;;;;;;;;;;;17.00;55.60;;;;;;5062441;28;43649;-82
2021/12/05 18:24:06;;;;;;;;;;;17.00;55.50;;;;;;5064544;28;43004;-82
2021/12/05 18:26:32;;;;;;;;;;;17.10;55.30;;;;;;5063692;28;42903;-83
2021/12/05 18:28:58;;;;;;;;;;;17.20;55.60;;;;;;5063324;28;43092;-82
2021/12/05 18:31:25;;;;;;;;;;;17.20;55.70;;;;;;5063209;28;43934;-81
2021/12/05 18:33:56;;;;;;;;;;;17.10;54.30;;;;;;5061537;28;44199;-82
2021/12/05 18:36:22;;;;;;;;;;;17.10;54.00;;;;;;5060999;28;43096;-81
2021/12/05 18:38:48;;;;;;;;;;;17.20;54.10;;;;;;5063227;28;43209;-82
2021/12/05 18:41:16;;;;;;;;;;;17.20;55.00;;;;;;5060910;28;43887;-81
2021/12/05 18:43:42;;;;;;;;;;;17.20;54.70;;;;;;5057235;28;43350;-82
2021/12/05 18:46:09;;;;;;;;;;;17.20;54.90;;;;;;5060013;28;44054;-82
2021/12/05 18:48:36;;;;;;;;;;;17.20;55.40;;;;;;5060050;28;42993;-81
2021/12/05 18:51:03;;;;;;;;;;;17.10;54.00;;;;;;5061490;28;43943;-81
2021/12/05 18:53:29;;;;;;;;;;;17.10;53.90;;;;;;5062438;28;43044;-81
2021/12/05 18:55:55;;;;;;;;;;;17.10;54.90;;;;;;5063485;28;43695;-80
2021/12/05 18:58:23;;;;;;;;;;;17.90;54.80;;;;;;5065069;28;43080;-80
2021/12/05 19:06:27;;;;;;;;;;;17.20;54.30;;;;;;5053107;28;44177;-82
2021/12/05 19:11:49;;;;;;;;;;;17.40;55.20;;;;;;5061030;28;42990;-83
2021/12/05 19:14:17;;;;;;;;;;;17.30;54.50;;;;;;5063385;28;43024;-83
2021/12/05 19:16:43;;;;;;;;;;;17.40;55.20;;;;;;5060568;28;45116;-83
2021/12/05 19:19:09;;;;;;;;;;;17.20;54.40;;;;;;5062428;28;43005;-84
2021/12/05 19:21:35;;;;;;;;;;;17.20;55.70;;;;;;5062020;28;44219;-84
2021/12/05 19:24:01;;;;;;;;;;;17.40;55.60;;;;;;5064459;28;43172;-83
2021/12/05 19:26:27;;;;;;;;;;;17.30;55.80;;;;;;5061806;28;45119;-83
2021/12/05 19:28:53;;;;;;;;;;;17.40;54.90;;;;;;5064876;28;43691;-83
2021/12/05 19:31:18;;;;;;;;;;;17.30;55.80;;;;;;5060859;28;44214;-82
2021/12/05 19:33:44;;;;;;;;;;;17.30;55.50;;;;;;5065540;28;43065;-82
2021/12/05 19:36:15;;;;;;;;;;;17.20;55.60;;;;;;5064648;28;42983;-81
2021/12/05 19:38:43;;;;;;;;;;;17.30;56.00;;;;;;5065085;28;42955;-83
2021/12/05 19:41:09;;;;;;;;;;;17.30;56.00;;;;;;5063362;28;43004;-84
2021/12/05 19:43:35;;;;;;;;;;;17.20;55.70;;;;;;5064993;28;43117;-84
2021/12/05 19:46:02;;;;;;;;;;;17.30;55.00;;;;;;5064027;28;43609;-85
2021/12/05 19:48:28;;;;;;;;;;;17.30;55.30;;;;;;5063970;28;42969;-81
2021/12/05 19:50:54;;;;;;;;;;;17.40;55.10;;;;;;5063458;28;44464;-82
2021/12/05 19:53:20;;;;;;;;;;;17.30;54.80;;;;;;5061341;28;42905;-80
2021/12/05 19:55:46;;;;;;;;;;;17.30;54.80;;;;;;5061816;28;44219;-82
2021/12/05 19:58:12;;;;;;;;;;;17.30;54.60;;;;;;5062309;28;43144;-81
2021/12/05 20:00:39;;;;;;;;;;;18.30;56.50;;;;;;5059627;28;45823;-82
2021/12/05 20:03:05;;;;;;;;;;;17.60;55.50;;;;;;5063927;28;43841;-82
2021/12/05 20:05:33;;;;;;;;;;;17.40;56.20;;;;;;5056739;28;42977;-82
2021/12/05 20:08:00;;;;;;;;;;;17.40;55.30;;;;;;5063661;28;43092;-80